sensor_id;sensor_type;location;lat;lon;timestamp;pressure;altitude;pressure_sealevel;temperature;humidity
61573;BME280;47465;43.094;12.434;2023-05-20T00:02:09;98452.28;;;13.53;100.00
61573;BME280;47465;43.094;12.434;2023-05-20T00:04:51;98456.31;;;13.43;100.00
61573;BME280;47465;43.094;12.434;2023-05-20T00:07:40;98483.81;;;13.65;100.00
61573;BME280;47465;43.094;12.434;2023-05-20T00:10:07;98460.59;;;13.47;100.00
61573;BME280;47465;43.094;12.434;2023-05-20T00:12:34;98447.63;;;13.38;100.00
61573;BME280;47465;43.094;12.434;2023-05-20T00:15:04;98459.09;;;13.40;100.00
61573;BME280;47465;43.094;12.434;2023-05-20T00:17:40;98473.84;;;13.48;100.00
61573;BME280;47465;43.094;12.434;2023-05-20T01:09:35;98378.59;;;13.28;100.00
61573;BME280;47465;43.094;12.434;2023-05-20T01:12:04;98367.28;;;13.22;100.00
61573;BME280;47465;43.094;12.434;2023-05-20T01:14:38;98372.91;;;13.15;100.00
61573;BME280;47465;43.094;12.434;2023-05-20T01:17:09;98349.34;;;13.05;100.00
61573;BME280;47465;43.094;12.434;2023-05-20T01:19:44;98375.25;;;13.23;100.00
61573;BME280;47465;43.094;12.434;2023-05-20T01:22:12;98383.16;;;13.25;100.00
61573;BME280;47465;43.094;12.434;2023-05-20T01:24:47;98342.13;;;13.07;100.00
61573;BME280;47465;43.094;12.434;2023-05-20T01:27:20;98355.06;;;13.16;100.00
61573;BME280;47465;43.094;12.434;2023-05-20T01:30:01;98337.75;;;13.06;100.00
61573;BME280;47465;43.094;12.434;2023-05-20T01:32:31;98333.19;;;13.08;100.00
61573;BME280;47465;43.094;12.434;2023-05-20T01:35:15;98314.69;;;13.03;100.00
61573;BME280;47465;43.094;12.434;2023-05-20T01:38:03;98333.66;;;13.18;100.00
61573;BME280;47465;43.094;12.434;2023-05-20T01:40:43;98380.63;;;13.42;100.00
61573;BME280;47465;43.094;12.434;2023-05-20T01:43:37;98337.97;;;13.20;100.00
61573;BME280;47465;43.094;12.434;2023-05-20T01:46:05;98340.72;;;13.39;100.00
61573;BME280;47465;43.094;12.434;2023-05-20T01:48:31;98353.06;;;13.42;100.00
61573;BME280;47465;43.094;12.434;2023-05-20T01:51:00;98325.44;;;13.22;100.00
61573;BME280;47465;43.094;12.434;2023-05-20T01:53:27;98315.00;;;13.16;100.00
61573;BME280;47465;43.094;12.434;2023-05-20T01:56:07;98300.16;;;13.10;100.00
61573;BME280;47465;43.094;12.434;2023-05-20T01:58:34;98349.69;;;13.38;100.00
61573;BME280;47465;43.094;12.434;2023-05-20T02:01:01;98319.44;;;13.17;100.00
61573;BME280;47465;43.094;12.434;2023-05-20T02:03:28;98311.69;;;13.11;100.00
61573;BME280;47465;43.094;12.434;2023-05-20T02:05:55;98311.50;;;13.15;100.00
61573;BME280;47465;43.094;12.434;2023-05-20T02:08:22;98312.16;;;13.21;100.00
61573;BME280;47465;43.094;12.434;2023-05-20T02:10:48;98338.91;;;13.40;100.00
61573;BME280;47465;43.094;12.434;2023-05-20T02:13:17;98305.94;;;13.20;100.00
61573;BME280;47465;43.094;12.434;2023-05-20T02:15:43;98292.75;;;13.17;100.00
61573;BME280;47465;43.094;12.434;2023-05-20T02:18:11;98284.94;;;13.12;100.00
61573;BME280;47465;43.094;12.434;2023-05-20T02:20:37;98278.53;;;13.17;100.00
61573;BME280;47465;43.094;12.434;2023-05-20T02:23:03;98277.53;;;13.19;100.00
61573;BME280;47465;43.094;12.434;2023-05-20T02:25:33;98275.78;;;13.18;100.00
61573;BME280;47465;43.094;12.434;2023-05-20T02:27:59;98275.66;;;13.21;100.00
61573;BME280;47465;43.094;12.434;2023-05-20T02:30:28;98272.19;;;13.19;100.00
61573;BME280;47465;43.094;12.434;2023-05-20T02:32:57;98260.56;;;13.20;100.00
61573;BME280;47465;43.094;12.434;2023-05-20T02:35:24;98259.69;;;13.20;100.00
61573;BME280;47465;43.094;12.434;2023-05-20T02:37:53;98301.03;;;13.50;100.00
61573;BME280;47465;43.094;12.434;2023-05-20T02:40:19;98257.59;;;13.26;100.00
61573;BME280;47465;43.094;12.434;2023-05-20T03:35:50;98274.53;;;13.65;100.00
61573;BME280;47465;43.094;12.434;2023-05-20T03:38:16;98242.78;;;13.40;100.00
61573;BME280;47465;43.094;12.434;2023-05-20T03:40:42;98229.69;;;13.33;100.00
61573;BME280;47465;43.094;12.434;2023-05-20T03:43:09;98273.69;;;13.64;100.00
61573;BME280;47465;43.094;12.434;2023-05-20T03:45:35;98217.94;;;13.38;100.00
61573;BME280;47465;43.094;12.434;2023-05-20T03:48:01;98233.91;;;13.39;100.00
61573;BME280;47465;43.094;12.434;2023-05-20T03:50:28;98243.06;;;13.33;100.00
61573;BME280;47465;43.094;12.434;2023-05-20T03:52:57;98255.75;;;13.28;100.00
61573;BME280;47465;43.094;12.434;2023-05-20T03:55:23;98274.03;;;13.38;100.00
61573;BME280;47465;43.094;12.434;2023-05-20T03:57:49;98241.28;;;13.13;100.00
61573;BME280;47465;43.094;12.434;2023-05-20T04:00:16;98234.28;;;13.11;100.00
61573;BME280;47465;43.094;12.434;2023-05-20T04:02:43;98243.16;;;13.11;100.00
61573;BME280;47465;43.094;12.434;2023-05-20T04:05:10;98243.38;;;13.07;100.00
61573;BME280;47465;43.094;12.434;2023-05-20T04:07:36;98280.66;;;13.29;100.00
61573;BME280;47465;43.094;12.434;2023-05-20T04:10:04;98264.97;;;13.21;100.00
61573;BME280;47465;43.094;12.434;2023-05-20T04:12:31;98257.03;;;13.20;100.00
61573;BME280;47465;43.094;12.434;2023-05-20T04:14:57;98258.09;;;13.15;100.00
61573;BME280;47465;43.094;12.434;2023-05-20T04:17:23;98251.09;;;13.13;100.00
61573;BME280;47465;43.094;12.434;2023-05-20T04:19:49;98243.41;;;13.05;100.00
61573;BME280;47465;43.094;12.434;2023-05-20T04:22:15;98239.59;;;12.92;100.00
61573;BME280;47465;43.094;12.434;2023-05-20T04:24:41;98248.84;;;13.04;100.00
61573;BME280;47465;43.094;12.434;2023-05-20T04:27:09;98288.78;;;13.26;100.00
61573;BME280;47465;43.094;12.434;2023-05-20T04:29:36;98261.19;;;13.06;100.00
61573;BME280;47465;43.094;12.434;2023-05-20T04:32:04;98256.88;;;13.04;100.00
61573;BME280;47465;43.094;12.434;2023-05-20T04:34:30;98241.38;;;12.91;100.00
61573;BME280;47465;43.094;12.434;2023-05-20T04:36:59;98251.53;;;13.04;100.00
61573;BME280;47465;43.094;12.434;2023-05-20T04:39:25;98278.44;;;13.18;100.00
61573;BME280;47465;43.094;12.434;2023-05-20T04:41:52;98250.72;;;13.02;100.00
61573;BME280;47465;43.094;12.434;2023-05-20T04:44:21;98254.25;;;13.02;100.00
61573;BME280;47465;43.094;12.434;2023-05-20T04:46:49;98245.66;;;12.95;100.00
61573;BME280;47465;43.094;12.434;2023-05-20T04:49:16;98253.81;;;12.92;100.00
61573;BME280;47465;43.094;12.434;2023-05-20T04:51:42;98269.78;;;13.13;100.00
61573;BME280;47465;43.094;12.434;2023-05-20T04:54:08;98248.38;;;12.94;100.00
61573;BME280;47465;43.094;12.434;2023-05-20T04:56:34;98282.34;;;13.11;100.00
61573;BME280;47465;43.094;12.434;2023-05-20T04:59:01;98249.41;;;12.91;100.00
61573;BME280;47465;43.094;12.434;2023-05-20T05:01:29;98272.88;;;13.04;100.00
61573;BME280;47465;43.094;12.434;2023-05-20T05:03:55;98252.28;;;12.87;100.00
61573;BME280;47465;43.094;12.434;2023-05-20T05:06:21;98256.41;;;12.94;100.00
61573;BME280;47465;43.094;12.434;2023-05-20T05:08:47;98257.25;;;12.94;100.00
61573;BME280;47465;43.094;12.434;2023-05-20T05:11:16;98258.25;;;12.92;100.00
61573;BME280;47465;43.094;12.434;2023-05-20T05:13:49;98253.13;;;12.87;100.00
61573;BME280;47465;43.094;12.434;2023-05-20T05:16:15;98261.81;;;12.92;100.00
61573;BME280;47465;43.094;12.434;2023-05-20T05:18:43;98241.38;;;12.91;100.00
61573;BME280;47465;43.094;12.434;2023-05-20T05:21:11;98247.47;;;12.95;100.00
61573;BME280;47465;43.094;12.434;2023-05-20T05:23:37;98242.84;;;12.99;100.00
61573;BME280;47465;43.094;12.434;2023-05-20T05:26:03;98229.72;;;12.94;100.00
61573;BME280;47465;43.094;12.434;2023-05-20T05:28:44;98253.50;;;12.99;100.00
61573;BME280;47465;43.094;12.434;2023-05-20T05:31:13;98221.78;;;12.92;100.00
61573;BME280;47465;43.094;12.434;2023-05-20T05:33:39;98258.03;;;13.17;100.00
61573;BME280;47465;43.094;12.434;2023-05-20T05:36:07;98226.63;;;13.03;100.00
61573;BME280;47465;43.094;12.434;2023-05-20T05:38:33;98254.00;;;13.27;100.00
61573;BME280;47465;43.094;12.434;2023-05-20T05:40:59;98267.03;;;13.35;100.00
61573;BME280;47465;43.094;12.434;2023-05-20T05:43:25;98243.47;;;13.24;100.00
61573;BME280;47465;43.094;12.434;2023-05-20T05:45:51;98219.59;;;13.21;100.00
61573;BME280;47465;43.094;12.434;2023-05-20T05:48:17;98209.69;;;13.23;100.00
61573;BME280;47465;43.094;12.434;2023-05-20T05:50:52;98204.47;;;13.20;100.00
61573;BME280;47465;43.094;12.434;2023-05-20T05:53:26;98200.03;;;13.21;100.00
61573;BME280;47465;43.094;12.434;2023-05-20T05:55:52;98192.59;;;13.27;100.00
61573;BME280;47465;43.094;12.434;2023-05-20T05:58:18;98202.00;;;13.36;100.00
61573;BME280;47465;43.094;12.434;2023-05-20T06:00:44;98210.59;;;13.43;100.00
61573;BME280;47465;43.094;12.434;2023-05-20T06:03:12;98210.31;;;13.49;100.00
61573;BME280;47465;43.094;12.434;2023-05-20T06:05:38;98200.03;;;13.40;100.00
61573;BME280;47465;43.094;12.434;2023-05-20T06:08:04;98212.38;;;13.42;100.00
61573;BME280;47465;43.094;12.434;2023-05-20T06:10:32;98248.19;;;13.57;100.00
61573;BME280;47465;43.094;12.434;2023-05-20T06:12:58;98206.56;;;13.34;100.00
61573;BME280;47465;43.094;12.434;2023-05-20T06:15:27;98214.13;;;13.43;100.00
61573;BME280;47465;43.094;12.434;2023-05-20T06:17:56;98204.31;;;13.44;100.00
61573;BME280;47465;43.094;12.434;2023-05-20T06:20:23;98203.44;;;13.43;100.00
61573;BME280;47465;43.094;12.434;2023-05-20T06:22:49;98211.88;;;13.53;100.00
61573;BME280;47465;43.094;12.434;2023-05-20T06:25:19;98245.50;;;13.76;100.00
61573;BME280;47465;43.094;12.434;2023-05-20T06:27:50;98258.97;;;13.92;100.00
61573;BME280;47465;43.094;12.434;2023-05-20T06:30:18;98199.28;;;13.74;100.00
61573;BME280;47465;43.094;12.434;2023-05-20T06:32:45;98244.34;;;13.82;100.00
61573;BME280;47465;43.094;12.434;2023-05-20T06:35:11;98204.81;;;13.52;100.00
61573;BME280;47465;43.094;12.434;2023-05-20T06:37:37;98194.41;;;13.46;100.00
61573;BME280;47465;43.094;12.434;2023-05-20T06:40:05;98186.09;;;13.52;100.00
61573;BME280;47465;43.094;12.434;2023-05-20T06:42:33;98187.47;;;13.42;100.00
61573;BME280;47465;43.094;12.434;2023-05-20T06:45:01;98189.88;;;13.48;100.00
61573;BME280;47465;43.094;12.434;2023-05-20T06:47:27;98190.72;;;13.48;100.00
61573;BME280;47465;43.094;12.434;2023-05-20T06:49:53;98199.63;;;13.49;100.00
61573;BME280;47465;43.094;12.434;2023-05-20T06:52:20;98187.03;;;13.51;100.00
61573;BME280;47465;43.094;12.434;2023-05-20T06:54:46;98185.31;;;13.50;100.00
61573;BME280;47465;43.094;12.434;2023-05-20T06:57:12;98186.91;;;13.54;100.00
61573;BME280;47465;43.094;12.434;2023-05-20T06:59:39;98202.69;;;13.59;100.00
61573;BME280;47465;43.094;12.434;2023-05-20T07:02:20;98188.47;;;13.58;100.00
61573;BME280;47465;43.094;12.434;2023-05-20T07:04:48;98235.16;;;13.87;100.00
61573;BME280;47465;43.094;12.434;2023-05-20T07:07:16;98189.13;;;13.63;100.00
61573;BME280;47465;43.094;12.434;2023-05-20T07:09:43;98237.53;;;13.93;100.00
61573;BME280;47465;43.094;12.434;2023-05-20T07:12:10;98238.84;;;13.85;100.00
61573;BME280;47465;43.094;12.434;2023-05-20T07:14:37;98200.88;;;13.59;100.00
61573;BME280;47465;43.094;12.434;2023-05-20T07:17:05;98237.13;;;13.84;100.00
61573;BME280;47465;43.094;12.434;2023-05-20T07:26:33;98204.28;;;13.63;100.00
61573;BME280;47465;43.094;12.434;2023-05-20T07:29:02;98204.06;;;13.67;100.00
61573;BME280;47465;43.094;12.434;2023-05-20T07:31:28;98211.38;;;13.81;100.00
61573;BME280;47465;43.094;12.434;2023-05-20T07:33:55;98189.63;;;13.71;100.00
61573;BME280;47465;43.094;12.434;2023-05-20T07:36:22;98211.31;;;13.83;100.00
61573;BME280;47465;43.094;12.434;2023-05-20T07:38:48;98192.28;;;13.71;100.00
61573;BME280;47465;43.094;12.434;2023-05-20T07:41:16;98197.16;;;13.81;100.00
61573;BME280;47465;43.094;12.434;2023-05-20T07:43:44;98191.19;;;13.75;100.00
61573;BME280;47465;43.094;12.434;2023-05-20T07:46:10;98169.88;;;13.74;100.00
61573;BME280;47465;43.094;12.434;2023-05-20T07:48:37;98169.28;;;13.86;100.00
61573;BME280;47465;43.094;12.434;2023-05-20T07:51:10;98163.53;;;13.94;100.00
61573;BME280;47465;43.094;12.434;2023-05-20T07:53:37;98165.84;;;14.02;100.00
61573;BME280;47465;43.094;12.434;2023-05-20T07:56:04;98162.44;;;14.15;100.00
61573;BME280;47465;43.094;12.434;2023-05-20T07:58:31;98166.16;;;14.13;100.00
61573;BME280;47465;43.094;12.434;2023-05-20T08:00:59;98208.56;;;14.38;100.00
61573;BME280;47465;43.094;12.434;2023-05-20T08:03:26;98182.44;;;14.26;100.00
61573;BME280;47465;43.094;12.434;2023-05-20T08:05:55;98153.19;;;14.23;100.00
61573;BME280;47465;43.094;12.434;2023-05-20T08:08:21;98198.16;;;14.49;100.00
61573;BME280;47465;43.094;12.434;2023-05-20T08:10:47;98141.94;;;14.33;100.00
61573;BME280;47465;43.094;12.434;2023-05-20T08:13:13;98136.72;;;14.30;100.00
61573;BME280;47465;43.094;12.434;2023-05-20T08:15:39;98144.19;;;14.41;100.00
61573;BME280;47465;43.094;12.434;2023-05-20T08:18:07;98137.19;;;14.38;100.00
61573;BME280;47465;43.094;12.434;2023-05-20T08:20:33;98138.19;;;14.53;100.00
61573;BME280;47465;43.094;12.434;2023-05-20T08:22:59;98143.94;;;14.46;100.00
61573;BME280;47465;43.094;12.434;2023-05-20T08:25:25;98151.38;;;14.58;100.00
61573;BME280;47465;43.094;12.434;2023-05-20T08:27:56;98135.31;;;14.58;100.00
61573;BME280;47465;43.094;12.434;2023-05-20T08:30:22;98146.44;;;14.84;100.00
61573;BME280;47465;43.094;12.434;2023-05-20T08:32:49;98127.44;;;14.55;100.00
61573;BME280;47465;43.094;12.434;2023-05-20T08:35:17;98166.28;;;14.79;100.00
61573;BME280;47465;43.094;12.434;2023-05-20T08:37:43;98113.25;;;14.70;100.00
61573;BME280;47465;43.094;12.434;2023-05-20T08:40:10;98113.47;;;14.66;100.00
61573;BME280;47465;43.094;12.434;2023-05-20T08:42:40;98104.25;;;14.71;100.00
61573;BME280;47465;43.094;12.434;2023-05-20T08:45:16;98147.22;;;15.17;100.00
61573;BME280;47465;43.094;12.434;2023-05-20T08:47:43;98101.19;;;14.95;100.00
61573;BME280;47465;43.094;12.434;2023-05-20T08:50:11;98111.13;;;15.25;100.00
61573;BME280;47465;43.094;12.434;2023-05-20T08:52:42;98092.09;;;15.13;100.00
61573;BME280;47465;43.094;12.434;2023-05-20T08:55:14;98137.03;;;15.56;100.00
61573;BME280;47465;43.094;12.434;2023-05-20T08:57:44;98107.84;;;15.19;99.97
61573;BME280;47465;43.094;12.434;2023-05-20T09:00:12;98109.81;;;15.32;99.97
61573;BME280;47465;43.094;12.434;2023-05-20T09:02:38;98111.72;;;15.46;98.02
61573;BME280;47465;43.094;12.434;2023-05-20T09:05:08;98132.44;;;15.58;98.09
61573;BME280;47465;43.094;12.434;2023-05-20T09:07:35;98105.28;;;15.64;97.89
61573;BME280;47465;43.094;12.434;2023-05-20T09:10:04;98093.28;;;15.55;97.96
61573;BME280;47465;43.094;12.434;2023-05-20T09:12:32;98128.88;;;15.89;97.85
61573;BME280;47465;43.094;12.434;2023-05-20T09:15:02;98082.56;;;15.71;98.03
61573;BME280;47465;43.094;12.434;2023-05-20T09:17:28;98111.19;;;16.01;96.82
61573;BME280;47465;43.094;12.434;2023-05-20T09:19:54;98089.47;;;15.75;98.38
61573;BME280;47465;43.094;12.434;2023-05-20T09:22:24;98084.34;;;15.87;96.29
61573;BME280;47465;43.094;12.434;2023-05-20T09:24:50;98073.47;;;15.74;98.31
61573;BME280;47465;43.094;12.434;2023-05-20T09:27:18;98070.28;;;15.97;99.28
61573;BME280;47465;43.094;12.434;2023-05-20T09:29:46;98065.00;;;15.81;99.30
61573;BME280;47465;43.094;12.434;2023-05-20T09:32:20;98072.41;;;16.07;96.89
61573;BME280;47465;43.094;12.434;2023-05-20T09:34:48;98061.44;;;15.65;99.34
61573;BME280;47465;43.094;12.434;2023-05-20T09:37:18;98074.88;;;15.95;98.65
61573;BME280;47465;43.094;12.434;2023-05-20T09:39:53;98071.91;;;16.00;98.98
61573;BME280;47465;43.094;12.434;2023-05-20T09:42:25;98025.06;;;15.77;99.76
61573;BME280;47465;43.094;12.434;2023-05-20T09:44:53;98021.44;;;15.92;99.09
61573;BME280;47465;43.094;12.434;2023-05-20T09:47:22;98010.59;;;15.79;100.00
61573;BME280;47465;43.094;12.434;2023-05-20T09:49:51;98007.66;;;15.98;99.20
61573;BME280;47465;43.094;12.434;2023-05-20T09:52:19;98001.38;;;16.14;98.43
61573;BME280;47465;43.094;12.434;2023-05-20T09:54:47;98023.69;;;16.29;95.87
61573;BME280;47465;43.094;12.434;2023-05-20T09:57:14;98027.41;;;16.55;96.22
61573;BME280;47465;43.094;12.434;2023-05-20T09:59:43;98057.91;;;16.68;98.36
61573;BME280;47465;43.094;12.434;2023-05-20T10:02:10;98064.81;;;16.72;97.62
61573;BME280;47465;43.094;12.434;2023-05-20T10:04:40;98074.09;;;16.95;90.78
61573;BME280;47465;43.094;12.434;2023-05-20T10:10:10;98084.56;;;17.81;85.96
61573;BME280;47465;43.094;12.434;2023-05-20T10:12:47;98084.94;;;17.90;83.13
61573;BME280;47465;43.094;12.434;2023-05-20T10:18:54;98075.00;;;18.17;80.04
61573;BME280;47465;43.094;12.434;2023-05-20T10:21:23;98074.78;;;18.59;78.67
61573;BME280;47465;43.094;12.434;2023-05-20T10:23:52;98115.56;;;19.04;78.36
61573;BME280;47465;43.094;12.434;2023-05-20T10:28:56;98077.19;;;17.85;81.75
61573;BME280;47465;43.094;12.434;2023-05-20T10:31:23;98075.53;;;17.82;81.59
61573;BME280;47465;43.094;12.434;2023-05-20T10:33:58;98070.91;;;18.37;79.01
61573;BME280;47465;43.094;12.434;2023-05-20T10:36:26;98083.72;;;18.34;79.89
61573;BME280;47465;43.094;12.434;2023-05-20T10:38:53;98103.75;;;18.68;78.14
61573;BME280;47465;43.094;12.434;2023-05-20T10:41:48;98115.13;;;19.10;76.47
61573;BME280;47465;43.094;12.434;2023-05-20T10:44:14;98112.38;;;19.36;77.14
61573;BME280;47465;43.094;12.434;2023-05-20T10:46:45;98101.25;;;19.40;75.84
61573;BME280;47465;43.094;12.434;2023-05-20T10:49:18;98089.75;;;18.63;79.63
61573;BME280;47465;43.094;12.434;2023-05-20T10:51:45;98077.78;;;18.80;79.18
61573;BME280;47465;43.094;12.434;2023-05-20T10:54:12;98080.69;;;18.77;77.43
61573;BME280;47465;43.094;12.434;2023-05-20T10:56:39;98081.97;;;18.58;78.16
61573;BME280;47465;43.094;12.434;2023-05-20T10:59:15;98120.88;;;18.93;76.13
61573;BME280;47465;43.094;12.434;2023-05-20T11:01:41;98088.00;;;18.62;76.75
61573;BME280;47465;43.094;12.434;2023-05-20T11:04:08;98085.41;;;18.60;76.60
61573;BME280;47465;43.094;12.434;2023-05-20T11:06:49;98073.88;;;18.71;76.56
61573;BME280;47465;43.094;12.434;2023-05-20T11:09:15;98080.25;;;18.70;75.10
61573;BME280;47465;43.094;12.434;2023-05-20T11:11:42;98111.81;;;19.06;75.80
61573;BME280;47465;43.094;12.434;2023-05-20T11:14:09;98070.25;;;18.59;75.82
61573;BME280;47465;43.094;12.434;2023-05-20T11:16:38;98077.56;;;18.44;78.11
61573;BME280;47465;43.094;12.434;2023-05-20T11:19:06;98090.38;;;18.54;77.14
61573;BME280;47465;43.094;12.434;2023-05-20T11:21:32;98069.81;;;18.65;77.23
61573;BME280;47465;43.094;12.434;2023-05-20T11:24:00;98066.03;;;18.68;76.87
61573;BME280;47465;43.094;12.434;2023-05-20T11:26:28;98066.47;;;18.75;76.62
61573;BME280;47465;43.094;12.434;2023-05-20T11:28:54;98062.59;;;18.79;74.70
61573;BME280;47465;43.094;12.434;2023-05-20T11:31:21;98072.94;;;18.72;76.04
61573;BME280;47465;43.094;12.434;2023-05-20T11:33:49;98049.03;;;18.55;77.55
61573;BME280;47465;43.094;12.434;2023-05-20T11:36:16;98083.59;;;18.61;77.09
61573;BME280;47465;43.094;12.434;2023-05-20T11:38:44;98041.81;;;18.42;77.08
61573;BME280;47465;43.094;12.434;2023-05-20T11:41:13;98063.34;;;18.30;77.60
61573;BME280;47465;43.094;12.434;2023-05-20T11:43:38;98029.09;;;18.06;79.15
61573;BME280;47465;43.094;12.434;2023-05-20T11:46:08;98026.09;;;18.36;77.48
61573;BME280;47465;43.094;12.434;2023-05-20T11:48:34;98029.53;;;18.38;77.23
61573;BME280;47465;43.094;12.434;2023-05-20T11:51:04;98011.97;;;18.58;74.96
61573;BME280;47465;43.094;12.434;2023-05-20T11:53:32;98018.69;;;18.40;76.07
61573;BME280;47465;43.094;12.434;2023-05-20T11:56:00;98008.88;;;18.39;75.39
61573;BME280;47465;43.094;12.434;2023-05-20T11:58:30;98052.25;;;18.73;75.53
61573;BME280;47465;43.094;12.434;2023-05-20T12:00:59;98046.56;;;18.13;76.37
61573;BME280;47465;43.094;12.434;2023-05-20T12:03:44;98026.13;;;17.98;76.75
61573;BME280;47465;43.094;12.434;2023-05-20T12:06:11;98020.81;;;17.96;77.89
61573;BME280;47465;43.094;12.434;2023-05-20T12:08:38;98027.56;;;17.76;78.07
61573;BME280;47465;43.094;12.434;2023-05-20T12:11:04;98056.06;;;17.79;78.41
61573;BME280;47465;43.094;12.434;2023-05-20T12:13:31;98064.75;;;17.70;79.46
61573;BME280;47465;43.094;12.434;2023-05-20T12:15:57;98051.59;;;17.65;78.69
61573;BME280;47465;43.094;12.434;2023-05-20T12:18:23;98023.28;;;17.47;78.63
61573;BME280;47465;43.094;12.434;2023-05-20T12:20:49;98021.53;;;17.45;79.48
61573;BME280;47465;43.094;12.434;2023-05-20T12:23:15;98021.88;;;17.54;78.04
61573;BME280;47465;43.094;12.434;2023-05-20T12:25:41;98023.91;;;17.37;78.93
61573;BME280;47465;43.094;12.434;2023-05-20T12:28:10;98022.47;;;17.59;78.93
61573;BME280;47465;43.094;12.434;2023-05-20T12:30:39;98022.88;;;17.53;79.34
61573;BME280;47465;43.094;12.434;2023-05-20T12:33:05;98034.88;;;17.47;82.02
61573;BME280;47465;43.094;12.434;2023-05-20T12:35:36;98041.31;;;17.44;82.00
61573;BME280;47465;43.094;12.434;2023-05-20T12:38:03;98040.84;;;17.11;84.05
61573;BME280;47465;43.094;12.434;2023-05-20T12:40:30;98036.38;;;17.11;83.29
61573;BME280;47465;43.094;12.434;2023-05-20T12:42:56;98044.81;;;17.05;83.14
61573;BME280;47465;43.094;12.434;2023-05-20T12:45:23;98059.53;;;17.27;83.12
61573;BME280;47465;43.094;12.434;2023-05-20T12:47:51;98084.13;;;17.48;83.05
61573;BME280;47465;43.094;12.434;2023-05-20T12:50:17;98080.75;;;17.17;82.80
61573;BME280;47465;43.094;12.434;2023-05-20T12:52:43;98072.53;;;17.06;83.26
61573;BME280;47465;43.094;12.434;2023-05-20T12:55:09;98089.81;;;16.73;85.05
61573;BME280;47465;43.094;12.434;2023-05-20T12:57:38;98103.25;;;17.01;85.86
61573;BME280;47465;43.094;12.434;2023-05-20T13:00:05;98115.22;;;17.24;83.84
61573;BME280;47465;43.094;12.434;2023-05-20T13:02:33;98122.00;;;17.30;84.72
61573;BME280;47465;43.094;12.434;2023-05-20T13:05:00;98066.69;;;17.13;83.31
61573;BME280;47465;43.094;12.434;2023-05-20T13:07:26;98097.94;;;17.29;82.26
61573;BME280;47465;43.094;12.434;2023-05-20T13:09:52;98077.94;;;17.33;81.32
61573;BME280;47465;43.094;12.434;2023-05-20T13:12:18;98078.19;;;17.42;81.55
61573;BME280;47465;43.094;12.434;2023-05-20T13:14:44;98120.19;;;17.58;81.33
61573;BME280;47465;43.094;12.434;2023-05-20T13:17:10;98081.38;;;17.35;82.34
61573;BME280;47465;43.094;12.434;2023-05-20T13:19:36;98104.47;;;17.52;82.06
61573;BME280;47465;43.094;12.434;2023-05-20T13:22:04;98120.78;;;17.76;81.90
61573;BME280;47465;43.094;12.434;2023-05-20T13:24:32;98103.88;;;17.19;82.00
61573;BME280;47465;43.094;12.434;2023-05-20T13:26:58;98114.06;;;17.29;83.56
61573;BME280;47465;43.094;12.434;2023-05-20T13:29:25;98094.78;;;17.22;82.95
61573;BME280;47465;43.094;12.434;2023-05-20T13:31:51;98116.38;;;17.48;82.75
61573;BME280;47465;43.094;12.434;2023-05-20T13:34:17;98103.41;;;17.13;84.13
61573;BME280;47465;43.094;12.434;2023-05-20T13:36:43;98132.56;;;17.19;85.86
61573;BME280;47465;43.094;12.434;2023-05-20T13:39:11;98104.50;;;16.96;85.60
61573;BME280;47465;43.094;12.434;2023-05-20T13:41:37;98115.06;;;16.99;86.91
61573;BME280;47465;43.094;12.434;2023-05-20T13:44:03;98135.28;;;17.04;86.92
61573;BME280;47465;43.094;12.434;2023-05-20T13:46:29;98122.53;;;16.94;85.06
61573;BME280;47465;43.094;12.434;2023-05-20T13:48:55;98122.81;;;16.89;86.23
61573;BME280;47465;43.094;12.434;2023-05-20T13:51:21;98154.78;;;16.94;87.16
61573;BME280;47465;43.094;12.434;2023-05-20T13:53:47;98148.16;;;16.85;87.12
61573;BME280;47465;43.094;12.434;2023-05-20T13:56:14;98164.13;;;16.72;87.88
61573;BME280;47465;43.094;12.434;2023-05-20T13:58:40;98129.66;;;16.36;89.23
61573;BME280;47465;43.094;12.434;2023-05-20T14:01:06;98128.66;;;16.53;87.30
61573;BME280;47465;43.094;12.434;2023-05-20T14:03:33;98137.06;;;16.47;88.10
61573;BME280;47465;43.094;12.434;2023-05-20T14:05:59;98114.25;;;16.39;88.14
61573;BME280;47465;43.094;12.434;2023-05-20T14:08:26;98123.03;;;16.27;88.43
61573;BME280;47465;43.094;12.434;2023-05-20T14:10:52;98135.59;;;16.27;88.99
61573;BME280;47465;43.094;12.434;2023-05-20T14:13:21;98143.44;;;16.30;88.67
61573;BME280;47465;43.094;12.434;2023-05-20T14:15:47;98143.25;;;16.33;89.49
61573;BME280;47465;43.094;12.434;2023-05-20T14:18:14;98146.72;;;16.35;89.13
61573;BME280;47465;43.094;12.434;2023-05-20T14:20:40;98157.00;;;16.42;88.71
61573;BME280;47465;43.094;12.434;2023-05-20T14:23:06;98114.50;;;16.20;88.74
61573;BME280;47465;43.094;12.434;2023-05-20T14:25:32;98126.19;;;16.19;89.13
61573;BME280;47465;43.094;12.434;2023-05-20T14:27:58;98147.28;;;16.26;89.79
61573;BME280;47465;43.094;12.434;2023-05-20T14:30:25;98142.88;;;16.39;89.33
61573;BME280;47465;43.094;12.434;2023-05-20T14:32:51;98121.41;;;16.25;90.07
61573;BME280;47465;43.094;12.434;2023-05-20T14:35:17;98143.84;;;16.52;90.35
61573;BME280;47465;43.094;12.434;2023-05-20T14:37:43;98137.44;;;16.40;91.84
61573;BME280;47465;43.094;12.434;2023-05-20T14:40:09;98126.38;;;16.31;92.99
61573;BME280;47465;43.094;12.434;2023-05-20T14:42:36;98153.13;;;16.32;94.28
61573;BME280;47465;43.094;12.434;2023-05-20T14:45:02;98122.75;;;16.32;93.48
61573;BME280;47465;43.094;12.434;2023-05-20T14:47:30;98131.75;;;16.16;95.00
61573;BME280;47465;43.094;12.434;2023-05-20T14:49:56;98135.91;;;16.06;96.44